createdAt,value
2019-01-04T00:01:44.230Z,20.10
2019-01-04T00:04:15.707Z,25.57
2019-01-04T00:06:44.818Z,28.93
2019-01-04T00:09:13.914Z,23.20
2019-01-04T00:11:43.327Z,23.50
2019-01-04T00:14:12.402Z,30.97
2019-01-04T00:16:42.050Z,21.93
2019-01-04T00:19:11.142Z,20.80
2019-01-04T00:21:40.251Z,21.23
2019-01-04T00:24:09.611Z,24.77
2019-01-04T00:26:39.010Z,24.63
2019-01-04T00:29:08.381Z,26.57
2019-01-04T00:31:38.008Z,21.10
2019-01-04T00:34:07.690Z,24.10
2019-01-04T00:36:37.104Z,23.10
2019-01-04T00:39:07.009Z,26.53
2019-01-04T00:41:36.114Z,23.43
2019-01-04T00:44:05.294Z,25.90
2019-01-04T00:46:34.411Z,25.43
2019-01-04T00:49:03.513Z,25.73
2019-01-04T00:51:32.614Z,22.70
2019-01-04T00:54:01.713Z,25.03
2019-01-04T00:57:04.651Z,28.13
2019-01-04T01:00:09.453Z,22.63
2019-01-04T01:03:27.567Z,27.27
2019-01-04T01:06:32.576Z,25.20
2019-01-04T01:09:46.141Z,23.40
2019-01-04T01:12:56.607Z,26.13
2019-01-04T01:16:11.206Z,23.77
2019-01-04T01:19:17.425Z,26.70
2019-01-04T01:22:29.471Z,30.20
2019-01-04T01:25:38.135Z,27.53
2019-01-04T01:28:42.391Z,27.50
2019-01-04T01:31:51.401Z,30.50
2019-01-04T01:34:44.598Z,27.47
2019-01-04T01:37:50.547Z,30.03
2019-01-04T01:41:06.607Z,28.30
2019-01-04T01:44:12.381Z,31.10
2019-01-04T01:46:49.535Z,28.27
2019-01-04T01:49:59.890Z,27.53
2019-01-04T01:52:36.307Z,36.33
2019-01-04T01:55:05.571Z,26.70
2019-01-04T01:57:35.012Z,31.57
2019-01-04T02:00:05.214Z,27.87
2019-01-04T02:02:34.340Z,42.47
2019-01-04T02:05:04.114Z,33.10
2019-01-04T02:07:33.249Z,25.30
2019-01-04T02:10:02.368Z,32.93
2019-01-04T02:12:32.047Z,33.47
2019-01-04T02:15:01.454Z,29.67
2019-01-04T02:17:30.578Z,33.03
2019-01-04T02:20:00.128Z,32.53
2019-01-04T02:22:29.359Z,30.87
2019-01-04T02:24:58.461Z,30.17
2019-01-04T02:27:27.585Z,32.53
2019-01-04T02:29:56.683Z,33.03
2019-01-04T02:32:25.804Z,30.20
2019-01-04T02:34:55.227Z,32.80
2019-01-04T02:37:24.335Z,31.50
2019-01-04T02:39:53.431Z,28.37
2019-01-04T02:42:23.068Z,35.20
2019-01-04T02:44:52.438Z,31.53
2019-01-04T02:47:21.546Z,36.67
2019-01-04T02:49:50.646Z,43.03
2019-01-04T02:52:19.759Z,43.60
2019-01-04T02:54:49.099Z,35.57
2019-01-04T02:57:18.212Z,43.10
2019-01-04T02:59:48.336Z,43.93
2019-01-04T03:02:17.718Z,38.20
2019-01-04T03:04:47.058Z,35.77
2019-01-04T03:07:16.467Z,36.27
2019-01-04T03:09:45.828Z,35.33
2019-01-04T03:12:15.207Z,43.73
2019-01-04T03:14:44.281Z,38.60
2019-01-04T03:17:13.686Z,35.50
2019-01-04T03:19:42.767Z,40.00
2019-01-04T03:22:12.149Z,35.03
2019-01-04T03:24:41.223Z,39.20
2019-01-04T03:27:10.597Z,39.70
2019-01-04T03:29:40.195Z,32.80
2019-01-04T03:32:09.301Z,37.47
2019-01-04T03:34:38.386Z,35.40
2019-01-04T03:37:07.487Z,39.27
2019-01-04T03:39:36.808Z,36.63
2019-01-04T03:42:06.247Z,31.67
2019-01-04T03:44:35.418Z,33.40
2019-01-04T03:47:04.829Z,34.80
2019-01-04T03:49:33.958Z,40.03
2019-01-04T03:52:03.039Z,33.93
2019-01-04T03:54:32.395Z,38.17
2019-01-04T03:57:01.484Z,35.80
2019-01-04T03:59:30.895Z,40.83
2019-01-04T04:01:59.966Z,45.10
2019-01-04T04:04:29.000Z,36.83
2019-01-04T04:06:58.154Z,35.37
2019-01-04T04:09:27.277Z,38.40
2019-01-04T04:11:56.624Z,33.80
2019-01-04T04:14:25.729Z,36.53
2019-01-04T04:16:54.810Z,31.57
2019-01-04T04:19:24.038Z,34.50
2019-01-04T04:21:53.364Z,39.33
2019-01-04T04:24:22.732Z,39.50
2019-01-04T04:26:51.839Z,32.83
2019-01-04T04:29:21.215Z,37.97
2019-01-04T04:31:50.391Z,33.63
2019-01-04T04:34:19.765Z,34.43
2019-01-04T04:36:49.179Z,38.83
2019-01-04T04:39:18.310Z,32.97
2019-01-04T04:41:47.651Z,33.00
2019-01-04T04:44:16.765Z,34.83
2019-01-04T04:46:45.870Z,32.87
2019-01-04T04:49:14.895Z,31.17
2019-01-04T04:51:44.516Z,33.77
2019-01-04T04:54:13.624Z,42.23
2019-01-04T04:56:42.704Z,33.83
2019-01-04T04:59:11.888Z,39.67
2019-01-04T05:01:41.225Z,40.90
2019-01-04T05:04:10.392Z,36.13
2019-01-04T05:06:39.479Z,49.80
2019-01-04T05:09:08.648Z,41.20
2019-01-04T05:11:37.862Z,58.93
2019-01-04T05:14:06.979Z,76.13
2019-01-04T05:16:36.319Z,36.00
2019-01-04T05:19:05.426Z,34.77
2019-01-04T05:21:34.502Z,33.33
2019-01-04T05:24:03.604Z,36.67
2019-01-04T05:26:32.743Z,31.20
2019-01-04T05:29:01.851Z,37.50
2019-01-04T05:31:31.211Z,34.77
2019-01-04T05:34:00.325Z,115.27
2019-01-04T05:36:29.421Z,39.30
2019-01-04T05:38:58.587Z,37.07
2019-01-04T05:41:27.783Z,32.57
2019-01-04T05:43:56.892Z,30.20
2019-01-04T05:46:25.997Z,35.53
2019-01-04T05:48:55.379Z,31.73
2019-01-04T05:51:24.451Z,31.60
2019-01-04T05:53:53.639Z,34.90
2019-01-04T05:56:22.798Z,36.73
2019-01-04T05:58:53.900Z,27.67
2019-01-04T06:01:23.081Z,33.10
2019-01-04T06:03:52.439Z,28.40
2019-01-04T06:06:21.543Z,33.53
2019-01-04T06:08:51.224Z,31.43
2019-01-04T06:11:20.495Z,30.10
2019-01-04T06:13:49.615Z,36.50
2019-01-04T06:16:18.702Z,28.97
2019-01-04T06:18:48.447Z,32.13
2019-01-04T06:21:17.931Z,39.37
2019-01-04T06:23:47.215Z,36.83
2019-01-04T06:26:16.406Z,31.77
2019-01-04T06:28:45.908Z,28.63
2019-01-04T06:31:15.489Z,37.97
2019-01-04T06:33:44.921Z,31.47
2019-01-04T06:36:14.085Z,28.50
2019-01-04T06:38:43.557Z,32.07
2019-01-04T06:41:12.722Z,46.00
2019-01-04T06:43:42.323Z,32.67
2019-01-04T06:46:11.765Z,34.60
2019-01-04T06:48:41.231Z,32.67
2019-01-04T06:51:10.631Z,31.50
2019-01-04T06:53:40.011Z,39.63
2019-01-04T06:56:11.159Z,31.57
2019-01-04T06:58:40.252Z,35.50
2019-01-04T07:01:09.879Z,29.77
2019-01-04T07:03:39.421Z,26.93
2019-01-04T07:06:09.663Z,31.10
2019-01-04T07:08:39.045Z,34.07
2019-01-04T07:11:08.218Z,31.87
2019-01-04T07:13:37.386Z,26.00
2019-01-04T07:16:06.687Z,33.30
2019-01-04T07:18:36.027Z,27.27
2019-01-04T07:21:05.213Z,31.20
2019-01-04T07:23:34.663Z,30.90
2019-01-04T07:26:04.111Z,33.77
2019-01-04T07:28:33.451Z,31.80
2019-01-04T07:31:02.671Z,30.33
2019-01-04T07:33:32.060Z,30.27
2019-01-04T07:36:01.628Z,44.27
2019-01-04T07:38:30.983Z,42.97
2019-01-04T07:41:01.457Z,30.73
2019-01-04T07:43:31.186Z,27.23
2019-01-04T07:46:00.281Z,26.13
2019-01-04T07:48:29.367Z,29.40
2019-01-04T07:50:58.466Z,34.37
2019-01-04T07:53:27.482Z,32.67
2019-01-04T07:55:56.846Z,32.37
2019-01-04T07:58:26.206Z,29.83
2019-01-04T08:00:55.311Z,29.90
2019-01-04T08:03:25.858Z,33.97
2019-01-04T08:05:57.911Z,29.40
2019-01-04T08:08:27.374Z,26.93
2019-01-04T08:10:56.754Z,23.77
2019-01-04T08:13:25.878Z,25.97
2019-01-04T08:15:55.262Z,32.73
2019-01-04T08:18:24.342Z,30.07
2019-01-04T08:20:53.467Z,31.83
2019-01-04T08:23:22.894Z,34.40
2019-01-04T08:25:52.518Z,31.97
2019-01-04T08:28:21.870Z,30.27
2019-01-04T08:30:51.056Z,25.20
2019-01-04T08:33:20.294Z,28.83
2019-01-04T08:35:49.937Z,30.47
2019-01-04T08:38:19.106Z,25.53
2019-01-04T08:40:48.492Z,27.63
2019-01-04T08:43:17.598Z,28.80
2019-01-04T08:45:46.814Z,25.83
2019-01-04T08:48:16.004Z,40.83
2019-01-04T08:50:45.345Z,31.23
2019-01-04T08:53:14.442Z,35.00
2019-01-04T08:55:43.533Z,30.80
2019-01-04T08:58:12.795Z,26.43
2019-01-04T09:00:42.132Z,33.07
2019-01-04T09:03:11.274Z,29.97
2019-01-04T09:05:40.354Z,27.23
2019-01-04T09:08:09.639Z,23.50
2019-01-04T09:10:39.061Z,31.00
2019-01-04T09:13:08.175Z,25.57
2019-01-04T09:15:37.594Z,27.33
2019-01-04T09:18:07.551Z,30.53
2019-01-04T09:20:36.872Z,32.20
2019-01-04T09:23:05.975Z,31.37
2019-01-04T09:25:35.800Z,29.33
2019-01-04T09:28:05.195Z,28.30
2019-01-04T09:30:34.543Z,29.40
2019-01-04T09:33:03.905Z,29.47
2019-01-04T09:35:33.054Z,27.13
2019-01-04T09:38:02.152Z,32.40
2019-01-04T09:40:31.229Z,32.23
2019-01-04T09:43:00.591Z,27.20
2019-01-04T09:45:29.991Z,32.53
2019-01-04T09:47:59.375Z,34.50
2019-01-04T09:50:28.459Z,31.00
2019-01-04T09:52:57.565Z,52.20
2019-01-04T09:55:26.886Z,37.93
2019-01-04T09:57:56.052Z,38.60
2019-01-04T10:00:26.507Z,37.73
2019-01-04T10:02:55.727Z,35.97
2019-01-04T10:05:24.988Z,34.60
2019-01-04T10:07:54.342Z,37.93
2019-01-04T10:10:23.439Z,34.77
2019-01-04T10:12:52.857Z,34.03
2019-01-04T10:15:22.783Z,102.43
2019-01-04T10:17:51.979Z,79.50
2019-01-04T10:20:21.078Z,48.00
2019-01-04T10:22:50.782Z,50.80
2019-01-04T10:25:19.929Z,32.53
2019-01-04T10:27:49.343Z,29.60
2019-01-04T10:30:26.419Z,29.60
2019-01-04T10:32:55.495Z,46.23
2019-01-04T10:35:24.589Z,28.63
2019-01-04T10:37:53.797Z,22.80
2019-01-04T10:40:22.935Z,20.97
2019-01-04T10:42:52.547Z,21.30
2019-01-04T10:45:21.725Z,20.20
2019-01-04T10:47:51.500Z,25.47
2019-01-04T10:50:20.984Z,25.70
2019-01-04T10:52:51.789Z,24.93
2019-01-04T10:55:21.367Z,23.00
2019-01-04T10:57:50.752Z,23.57
2019-01-04T11:00:20.307Z,20.07
2019-01-04T11:02:49.569Z,23.53
2019-01-04T11:05:18.807Z,24.70
2019-01-04T11:07:49.015Z,23.50
2019-01-04T11:10:18.164Z,22.17
2019-01-04T11:12:47.362Z,25.00
2019-01-04T11:15:17.306Z,27.67
2019-01-04T11:17:47.206Z,26.70
2019-01-04T11:20:42.963Z,20.10
2019-01-04T11:23:48.087Z,22.00
2019-01-04T11:26:41.110Z,21.40
2019-01-04T11:30:02.170Z,21.87
2019-01-04T11:32:55.406Z,21.13
2019-01-04T11:35:50.537Z,20.73
2019-01-04T11:38:45.052Z,25.00
2019-01-04T11:41:42.568Z,21.07
2019-01-04T11:44:35.384Z,21.63
2019-01-04T11:47:45.903Z,25.47
2019-01-04T11:50:48.150Z,21.37
2019-01-04T11:53:19.659Z,24.83
2019-01-04T11:55:48.987Z,23.80
2019-01-04T11:58:18.258Z,21.90
2019-01-04T12:00:47.907Z,23.70
2019-01-04T12:03:17.074Z,26.53
2019-01-04T12:05:46.439Z,24.40
2019-01-04T12:08:16.354Z,26.93
2019-01-04T12:10:45.582Z,30.43
2019-01-04T12:13:14.670Z,25.10
2019-01-04T12:15:43.830Z,27.20
2019-01-04T12:18:13.270Z,21.73
2019-01-04T12:20:45.443Z,24.30
2019-01-04T12:23:14.190Z,24.50
2019-01-04T12:25:43.530Z,29.73
2019-01-04T12:28:12.569Z,33.43
2019-01-04T12:30:42.241Z,20.17
2019-01-04T12:33:11.362Z,29.33
2019-01-04T12:35:40.455Z,22.87
2019-01-04T12:38:10.123Z,29.07
2019-01-04T12:40:39.872Z,23.37
2019-01-04T12:43:09.238Z,30.97
2019-01-04T12:45:38.347Z,28.40
2019-01-04T12:48:07.464Z,22.03
2019-01-04T12:50:36.838Z,25.03
2019-01-04T12:53:05.935Z,23.00
2019-01-04T12:55:35.031Z,30.93
2019-01-04T12:58:04.075Z,35.03
2019-01-04T13:00:33.427Z,29.03
2019-01-04T13:03:02.531Z,29.33
2019-01-04T13:05:31.880Z,25.80
2019-01-04T13:08:01.007Z,24.10
2019-01-04T13:10:30.495Z,32.83
2019-01-04T13:13:05.376Z,30.20
2019-01-04T13:15:35.115Z,27.60
2019-01-04T13:18:04.243Z,28.87
2019-01-04T13:20:33.399Z,23.90
2019-01-04T13:23:02.483Z,30.13
2019-01-04T13:25:31.573Z,25.67
2019-01-04T13:28:00.770Z,29.97
2019-01-04T13:30:29.872Z,26.67
2019-01-04T13:32:59.323Z,26.93
2019-01-04T13:35:28.679Z,29.07
2019-01-04T13:37:58.033Z,25.47
2019-01-04T13:40:27.272Z,26.30
2019-01-04T13:42:56.476Z,24.03
2019-01-04T13:45:25.563Z,26.23
2019-01-04T13:47:54.787Z,24.07
2019-01-04T13:50:23.892Z,31.10
2019-01-04T13:52:53.238Z,22.10
2019-01-04T13:55:22.615Z,24.37
2019-01-04T13:57:52.038Z,16.10
2019-01-04T14:00:21.119Z,19.63
2019-01-04T14:02:50.607Z,16.57
2019-01-04T14:05:19.702Z,19.20
2019-01-04T14:07:49.017Z,21.20
2019-01-04T14:10:18.587Z,21.30
2019-01-04T14:12:47.725Z,22.10
2019-01-04T14:15:18.239Z,22.30
2019-01-04T14:17:47.995Z,20.93
2019-01-04T14:20:17.744Z,16.40
2019-01-04T14:22:47.122Z,17.47
2019-01-04T14:25:16.325Z,20.33
2019-01-04T14:27:45.667Z,24.87
2019-01-04T14:30:15.012Z,15.70
2019-01-04T14:32:44.682Z,15.77
2019-01-04T14:35:13.768Z,14.53
2019-01-04T14:37:43.215Z,14.03
2019-01-04T14:40:12.655Z,13.17
2019-01-04T14:42:41.777Z,14.10
2019-01-04T14:45:10.859Z,12.87
2019-01-04T14:47:40.502Z,10.50
2019-01-04T14:50:10.714Z,14.67
2019-01-04T14:52:41.107Z,12.33
2019-01-04T14:55:10.215Z,13.00
2019-01-04T14:57:39.870Z,8.30
2019-01-04T15:00:11.471Z,10.67
2019-01-04T15:02:41.156Z,10.53
2019-01-04T15:05:10.239Z,13.23
2019-01-04T15:07:39.951Z,10.67
2019-01-04T15:10:09.779Z,7.63
2019-01-04T15:12:39.186Z,6.90
2019-01-04T15:15:08.658Z,6.23
2019-01-04T15:17:37.814Z,6.13
2019-01-04T15:20:08.205Z,6.70
2019-01-04T15:22:37.639Z,7.00
2019-01-04T15:25:07.291Z,8.60
2019-01-04T15:27:36.674Z,17.70
2019-01-04T15:30:07.719Z,12.07
2019-01-04T15:32:37.590Z,7.40
2019-01-04T15:35:06.875Z,10.40
2019-01-04T15:37:36.289Z,7.90
2019-01-04T15:40:06.435Z,6.97
2019-01-04T15:42:35.756Z,7.30
2019-01-04T15:45:06.033Z,11.20
2019-01-04T15:47:35.477Z,12.30
2019-01-04T15:50:05.043Z,5.73
2019-01-04T15:52:35.596Z,6.40
2019-01-04T15:55:08.481Z,6.50
2019-01-04T15:57:41.409Z,8.37
2019-01-04T16:00:13.769Z,12.47
2019-01-04T16:02:45.383Z,10.40
2019-01-04T16:05:21.604Z,10.67
2019-01-04T16:07:56.588Z,9.03
2019-01-04T16:10:30.663Z,10.07
2019-01-04T16:13:03.435Z,10.33
2019-01-04T16:15:39.293Z,8.67
2019-01-04T16:18:12.014Z,12.20
2019-01-04T16:20:46.741Z,7.17
2019-01-04T16:23:30.276Z,8.20
2019-01-04T16:26:04.421Z,8.57
2019-01-04T16:28:36.666Z,9.40
2019-01-04T16:31:10.040Z,12.20
2019-01-04T16:33:44.266Z,10.70
2019-01-04T16:36:16.449Z,11.50
2019-01-04T16:38:53.666Z,7.17
2019-01-04T16:41:23.267Z,8.53
2019-01-04T16:43:56.689Z,11.13
2019-01-04T16:46:39.028Z,12.27
2019-01-04T16:49:13.819Z,16.43
2019-01-04T16:51:43.245Z,15.27
2019-01-04T16:54:12.410Z,12.23
2019-01-04T16:56:42.216Z,13.70
2019-01-04T16:59:11.553Z,12.70
2019-01-04T17:01:41.130Z,15.03
2019-01-04T17:04:10.210Z,13.13
2019-01-04T17:06:39.329Z,14.60
2019-01-04T17:09:09.018Z,15.10
2019-01-04T17:11:38.735Z,18.07
2019-01-04T17:14:07.814Z,13.80
2019-01-04T17:16:37.323Z,14.93
2019-01-04T17:19:06.404Z,13.97
2019-01-04T17:21:35.611Z,13.93
2019-01-04T17:24:05.157Z,15.50
2019-01-04T17:26:55.186Z,14.63
2019-01-04T17:29:27.787Z,29.00
2019-01-04T17:32:08.727Z,15.73
2019-01-04T17:34:44.948Z,21.87
2019-01-04T17:37:14.102Z,16.00
2019-01-04T17:39:43.361Z,23.00
2019-01-04T17:42:12.526Z,20.80
2019-01-04T17:44:41.607Z,17.13
2019-01-04T17:47:11.062Z,13.67
2019-01-04T17:49:40.146Z,19.93
2019-01-04T17:52:09.286Z,19.03
2019-01-04T17:54:38.362Z,18.47
2019-01-04T17:57:07.480Z,19.93
2019-01-04T17:59:36.818Z,24.23
2019-01-04T18:02:06.142Z,20.43
2019-01-04T18:04:35.310Z,16.07
2019-01-04T18:07:05.083Z,16.27
2019-01-04T18:09:34.406Z,16.43
2019-01-04T18:12:04.226Z,20.23
2019-01-04T18:14:33.222Z,17.13
2019-01-04T18:17:02.950Z,18.00
2019-01-04T18:19:32.318Z,16.93
2019-01-04T18:22:01.994Z,22.00
2019-01-04T18:24:31.662Z,20.57
2019-01-04T18:27:00.811Z,19.57
2019-01-04T18:29:30.183Z,19.83
2019-01-04T18:31:59.412Z,22.67
2019-01-04T18:34:29.015Z,27.33
2019-01-04T18:36:58.140Z,30.83
2019-01-04T18:39:27.284Z,21.70
2019-01-04T18:41:56.427Z,21.37
2019-01-04T18:44:26.119Z,21.33
2019-01-04T18:46:55.494Z,22.13
2019-01-04T18:49:24.859Z,26.97
2019-01-04T18:51:54.255Z,26.20
2019-01-04T18:54:23.655Z,22.23
2019-01-04T18:56:52.771Z,25.77
2019-01-04T18:59:22.011Z,19.80
2019-01-04T19:01:51.430Z,30.17
2019-01-04T19:04:20.511Z,22.80
2019-01-04T19:06:49.719Z,23.00
2019-01-04T19:09:18.886Z,27.00
2019-01-04T19:11:48.209Z,33.87
2019-01-04T19:14:17.384Z,24.37
2019-01-04T19:16:46.447Z,24.70
2019-01-04T19:19:15.538Z,25.67
2019-01-04T19:21:44.968Z,25.23
2019-01-04T19:24:14.130Z,28.40
2019-01-04T19:26:43.267Z,26.90
2019-01-04T19:29:12.623Z,29.40
2019-01-04T19:31:41.770Z,27.50
2019-01-04T19:34:10.852Z,28.67
2019-01-04T19:36:40.250Z,24.27
2019-01-04T19:39:10.515Z,27.40
2019-01-04T19:41:39.835Z,28.53
2019-01-04T19:44:09.858Z,27.27
2019-01-04T19:46:39.066Z,25.73
2019-01-04T19:49:08.180Z,27.87
2019-01-04T19:51:37.540Z,32.10
2019-01-04T19:54:06.835Z,29.27
2019-01-04T19:56:35.935Z,28.90
2019-01-04T19:59:05.086Z,29.63
2019-01-04T20:01:34.174Z,34.13
2019-01-04T20:04:04.042Z,28.53
2019-01-04T20:07:51.346Z,31.17
2019-01-04T20:11:41.181Z,30.60
2019-01-04T20:15:13.972Z,33.60
2019-01-04T20:18:04.273Z,40.37
2019-01-04T20:20:51.619Z,34.23
2019-01-04T20:23:38.195Z,31.90
2019-01-04T20:26:24.927Z,35.17
2019-01-04T20:29:12.023Z,33.60
2019-01-04T20:31:58.572Z,34.70
2019-01-04T20:34:59.264Z,31.30
2019-01-04T20:37:56.572Z,32.80
2019-01-04T20:41:03.203Z,30.13
2019-01-04T20:43:51.441Z,43.80
2019-01-04T20:46:36.875Z,33.13
2019-01-04T20:49:28.080Z,35.00
2019-01-04T20:52:15.931Z,37.43
2019-01-04T20:55:03.900Z,33.50
2019-01-04T20:57:44.951Z,34.20
2019-01-04T21:00:51.344Z,40.33
2019-01-04T21:03:42.506Z,37.77
2019-01-04T21:06:36.435Z,38.57
2019-01-04T21:09:39.175Z,38.37
2019-01-04T21:12:36.182Z,57.27
2019-01-04T21:15:23.147Z,40.30
2019-01-04T21:18:14.631Z,38.40
2019-01-04T21:21:02.894Z,41.80
2019-01-04T21:23:50.351Z,38.67
2019-01-04T21:26:31.265Z,41.30
2019-01-04T21:29:19.971Z,44.37
2019-01-04T21:32:14.734Z,40.53
2019-01-04T21:35:11.154Z,41.40
2019-01-04T21:37:51.335Z,43.00
2019-01-04T21:40:45.266Z,45.43
2019-01-04T21:43:36.762Z,39.87
2019-01-04T21:46:37.323Z,41.93
2019-01-04T21:49:28.562Z,40.70
2019-01-04T21:52:22.781Z,38.40
2019-01-04T21:55:09.828Z,44.83
2019-01-04T21:57:56.485Z,38.43
2019-01-04T22:00:51.394Z,40.40
2019-01-04T22:03:38.446Z,49.20
2019-01-04T22:06:25.239Z,44.93
2019-01-04T22:09:19.494Z,44.90
2019-01-04T22:12:08.174Z,41.30
2019-01-04T22:15:01.396Z,40.70
2019-01-04T22:17:47.959Z,46.20
2019-01-04T22:20:28.014Z,56.23
2019-01-04T22:23:22.304Z,42.53
2019-01-04T22:26:28.303Z,38.10
2019-01-04T22:29:10.038Z,40.43
2019-01-04T22:31:57.079Z,46.00
2019-01-04T22:34:39.039Z,37.57
2019-01-04T22:37:39.316Z,40.10
2019-01-04T22:40:40.007Z,38.10
2019-01-04T22:43:40.299Z,37.13
2019-01-04T22:46:43.327Z,39.07
2019-01-04T22:49:38.088Z,35.57
2019-01-04T22:52:24.661Z,34.07
2019-01-04T22:55:12.799Z,34.50
2019-01-04T22:58:03.697Z,45.10
2019-01-04T23:00:52.521Z,34.53
2019-01-04T23:03:38.990Z,34.50
2019-01-04T23:06:25.879Z,31.17
2019-01-04T23:09:12.933Z,32.60
2019-01-04T23:11:59.464Z,26.77
2019-01-04T23:15:02.794Z,30.93
2019-01-04T23:17:59.798Z,32.37
2019-01-04T23:20:57.106Z,31.33
2019-01-04T23:23:38.253Z,28.53
2019-01-04T23:26:25.035Z,25.07
2019-01-04T23:29:15.929Z,27.83
2019-01-04T23:32:12.800Z,27.80
2019-01-04T23:34:57.554Z,23.97
2019-01-04T23:37:44.331Z,30.53
2019-01-04T23:40:41.383Z,31.80
2019-01-04T23:43:40.815Z,30.90
2019-01-04T23:46:28.877Z,30.13
2019-01-04T23:49:28.903Z,30.93
2019-01-04T23:52:28.454Z,24.63
2019-01-04T23:55:24.671Z,33.43
2019-01-04T23:58:11.575Z,27.13
